createdAt,value
2019-05-14T00:00:17.560Z,103356.43
2019-05-14T00:02:44.253Z,103361.77
2019-05-14T00:05:12.190Z,103359.98
2019-05-14T00:07:41.350Z,103360.87
2019-05-14T00:10:09.050Z,103365.36
2019-05-14T00:12:35.825Z,103364.92
2019-05-14T00:15:02.569Z,103368.48
2019-05-14T00:17:31.829Z,103357.80
2019-05-14T00:20:07.439Z,103358.23
2019-05-14T00:22:28.708Z,103360.49
2019-05-14T00:24:55.490Z,103356.02
2019-05-14T00:27:22.295Z,103350.67
2019-05-14T00:29:49.028Z,103347.12
2019-05-14T00:32:15.693Z,103352.02
2019-05-14T00:34:42.693Z,103349.80
2019-05-14T00:37:11.480Z,103347.12
2019-05-14T00:39:38.053Z,103348.91
2019-05-14T00:42:05.087Z,103350.25
2019-05-14T00:44:32.405Z,103358.27
2019-05-14T00:46:59.266Z,103356.48
2019-05-14T00:49:25.936Z,103351.59
2019-05-14T00:51:52.561Z,103346.68
2019-05-14T00:54:21.419Z,103352.45
2019-05-14T00:56:47.723Z,103347.13
2019-05-14T00:59:14.482Z,103351.14
2019-05-14T01:01:42.475Z,103350.69
2019-05-14T01:04:11.632Z,103339.54
2019-05-14T01:06:38.022Z,103349.78
2019-05-14T01:09:04.956Z,103347.10
2019-05-14T01:11:31.664Z,103349.78
2019-05-14T01:13:58.249Z,103352.42
2019-05-14T01:16:27.866Z,103348.42
2019-05-14T01:18:54.573Z,103352.42
2019-05-14T01:21:21.931Z,103347.08
2019-05-14T01:23:48.743Z,103345.28
2019-05-14T01:26:15.526Z,103351.09
2019-05-14T01:28:42.458Z,103343.09
2019-05-14T01:31:11.181Z,103351.95
2019-05-14T01:33:37.743Z,103349.28
2019-05-14T01:36:04.522Z,103344.42
2019-05-14T01:38:31.642Z,103343.95
2019-05-14T01:40:58.427Z,103344.83
2019-05-14T01:43:25.039Z,103353.76
2019-05-14T01:45:52.419Z,103347.50
2019-05-14T01:48:19.262Z,103354.17
2019-05-14T01:50:45.907Z,103349.69
2019-05-14T01:53:12.498Z,103346.58
2019-05-14T01:55:41.304Z,103346.17
2019-05-14T01:58:07.566Z,103354.98
2019-05-14T02:00:34.156Z,103358.13
2019-05-14T02:03:01.760Z,103369.24
2019-05-14T02:05:30.943Z,103362.98
2019-05-14T02:07:57.373Z,103363.86
2019-05-14T02:10:24.067Z,103361.19
2019-05-14T02:12:51.583Z,103359.86
2019-05-14T02:15:18.673Z,103357.64
2019-05-14T02:17:45.353Z,103357.59
2019-05-14T02:20:12.700Z,103360.75
2019-05-14T02:22:41.719Z,103364.70
2019-05-14T02:25:08.436Z,103350.48
2019-05-14T02:27:35.178Z,103355.37
2019-05-14T02:30:02.336Z,103356.70
2019-05-14T02:32:30.276Z,103354.03
2019-05-14T02:34:58.928Z,103356.25
2019-05-14T02:37:25.544Z,103349.59
2019-05-14T02:39:52.396Z,103358.02
2019-05-14T02:42:19.830Z,103355.80
2019-05-14T02:44:48.985Z,103364.64
2019-05-14T02:47:15.679Z,103369.08
2019-05-14T02:49:42.444Z,103363.30
2019-05-14T02:52:10.183Z,103363.73
2019-05-14T02:54:40.228Z,103365.91
2019-05-14T02:57:09.808Z,103359.28
2019-05-14T02:59:34.351Z,103353.53
2019-05-14T03:02:01.059Z,103358.41
2019-05-14T03:04:30.043Z,103357.97
2019-05-14T03:06:59.058Z,103363.22
2019-05-14T03:09:29.363Z,103373.42
2019-05-14T03:11:54.687Z,103364.55
2019-05-14T03:14:21.456Z,103358.77
2019-05-14T03:16:49.761Z,103348.58
2019-05-14T03:19:19.561Z,103345.09
2019-05-14T03:21:45.426Z,103339.75
2019-05-14T03:24:12.125Z,103337.09
2019-05-14T03:26:39.870Z,103341.41
2019-05-14T03:29:09.883Z,103335.24
2019-05-14T03:31:35.852Z,103340.50
2019-05-14T03:34:03.935Z,103340.05
2019-05-14T03:36:34.593Z,103341.84
2019-05-14T03:38:59.718Z,103342.27
2019-05-14T03:41:26.409Z,103348.48
2019-05-14T03:43:53.493Z,103344.07
2019-05-14T03:46:20.699Z,103345.86
2019-05-14T03:48:49.311Z,103344.07
2019-05-14T03:51:20.348Z,103348.50
2019-05-14T03:53:56.949Z,103349.00
2019-05-14T03:56:18.997Z,103345.40
2019-05-14T03:58:44.929Z,103359.59
2019-05-14T04:01:12.082Z,103360.94
2019-05-14T04:03:39.832Z,103358.28
2019-05-14T04:06:10.025Z,103367.66
2019-05-14T04:08:39.346Z,103360.62
2019-05-14T04:11:09.578Z,103363.30
2019-05-14T04:13:39.793Z,103354.91
2019-05-14T04:16:09.180Z,103355.37
2019-05-14T04:18:35.134Z,103354.48
2019-05-14T04:21:02.871Z,103357.59
2019-05-14T04:23:29.653Z,103347.91
2019-05-14T04:26:00.237Z,103350.58
2019-05-14T04:28:25.649Z,103360.39
2019-05-14T04:30:52.767Z,103352.84
2019-05-14T04:33:21.975Z,103351.98
2019-05-14T04:35:49.162Z,103359.13
2019-05-14T04:38:20.135Z,103354.66
2019-05-14T04:40:45.753Z,103352.91
2019-05-14T04:43:14.269Z,103358.69
2019-05-14T04:45:41.697Z,103359.59
2019-05-14T04:48:28.028Z,103357.34
2019-05-14T04:50:41.017Z,103359.56
2019-05-14T04:53:09.078Z,103353.80
2019-05-14T04:55:36.372Z,103361.30
2019-05-14T04:58:03.214Z,103364.41
2019-05-14T05:00:30.728Z,103353.20
2019-05-14T05:03:00.040Z,103354.70
2019-05-14T05:05:26.377Z,103354.70
2019-05-14T05:07:53.019Z,103354.61
2019-05-14T05:10:19.920Z,103345.02
2019-05-14T05:12:49.235Z,103348.23
2019-05-14T05:15:15.264Z,103344.87
2019-05-14T05:17:47.994Z,103353.35
2019-05-14T05:20:10.810Z,103356.31
2019-05-14T05:22:39.358Z,103359.40
2019-05-14T05:25:08.370Z,103355.97
2019-05-14T05:27:35.359Z,103365.63
2019-05-14T05:30:05.339Z,103365.05
2019-05-14T05:32:32.043Z,103360.17
2019-05-14T05:35:00.629Z,103360.88
2019-05-14T05:37:29.425Z,103371.07
2019-05-14T05:39:58.244Z,103360.78
2019-05-14T05:42:29.460Z,103366.05
2019-05-14T05:44:56.007Z,103364.24
2019-05-14T05:47:23.664Z,103364.31
2019-05-14T05:49:50.314Z,103358.37
2019-05-14T05:52:19.119Z,103364.16
2019-05-14T05:54:45.799Z,103357.61
2019-05-14T05:57:12.796Z,103349.42
2019-05-14T05:59:39.584Z,103357.76
2019-05-14T06:02:09.363Z,103360.86
2019-05-14T06:04:39.393Z,103350.22
2019-05-14T06:07:09.775Z,103347.53
2019-05-14T06:09:38.183Z,103356.67
2019-05-14T06:12:04.968Z,103353.22
2019-05-14T06:14:33.157Z,103356.49
2019-05-14T06:17:00.424Z,103352.23
2019-05-14T06:19:28.996Z,103350.56
2019-05-14T06:21:59.665Z,103360.42
2019-05-14T06:24:28.596Z,103354.30
2019-05-14T06:26:58.566Z,103344.06
2019-05-14T06:29:28.785Z,103344.06
2019-05-14T06:31:58.501Z,103341.34
2019-05-14T06:34:28.907Z,103346.84
2019-05-14T06:36:55.401Z,103351.33
2019-05-14T06:39:22.074Z,103355.73
2019-05-14T06:41:50.705Z,103349.84
2019-05-14T06:44:18.745Z,103349.96
2019-05-14T06:46:45.775Z,103357.97
2019-05-14T06:49:12.410Z,103360.30
2019-05-14T06:51:39.548Z,103351.19
2019-05-14T06:54:06.368Z,103357.10
2019-05-14T06:56:33.256Z,103346.48
2019-05-14T06:58:59.961Z,103347.94
2019-05-14T07:01:28.973Z,103354.16
2019-05-14T07:03:55.160Z,103348.38
2019-05-14T07:06:21.823Z,103355.48
2019-05-14T07:08:52.107Z,103354.92
2019-05-14T07:11:19.164Z,103356.88
2019-05-14T07:13:45.770Z,103351.77
2019-05-14T07:16:12.373Z,103354.18
2019-05-14T07:18:50.769Z,103358.00
2019-05-14T07:21:08.204Z,103352.13
2019-05-14T07:23:38.649Z,103348.56
2019-05-14T07:26:05.539Z,103345.36
2019-05-14T07:28:34.171Z,103356.64
2019-05-14T07:31:00.862Z,103347.63
2019-05-14T07:33:29.255Z,103336.57
2019-05-14T07:35:56.142Z,103331.14
2019-05-14T07:38:22.822Z,103342.91
2019-05-14T07:40:49.687Z,103335.64
2019-05-14T07:43:18.745Z,103333.61
2019-05-14T07:45:44.988Z,103342.13
2019-05-14T07:48:11.877Z,103346.49
2019-05-14T07:50:39.732Z,103339.95
2019-05-14T07:53:08.998Z,103340.28
2019-05-14T07:55:38.697Z,103338.68
2019-05-14T07:58:05.398Z,103333.84
2019-05-14T08:00:34.880Z,103326.05
2019-05-14T08:03:03.053Z,103330.61
2019-05-14T08:05:29.832Z,103317.94
2019-05-14T08:07:58.503Z,103323.73
2019-05-14T08:10:26.207Z,103322.33
2019-05-14T08:12:52.835Z,103321.54
2019-05-14T08:15:22.385Z,103315.53
2019-05-14T08:17:48.380Z,103314.98
2019-05-14T08:20:18.311Z,103309.48
2019-05-14T08:22:45.230Z,103305.28
2019-05-14T08:25:11.960Z,103301.47
2019-05-14T08:27:39.046Z,103301.27
2019-05-14T08:30:08.203Z,103288.42
2019-05-14T08:32:35.004Z,103283.48
2019-05-14T08:35:01.935Z,103287.67
2019-05-14T08:37:28.838Z,103283.34
2019-05-14T08:39:55.432Z,103279.89
2019-05-14T08:42:22.030Z,103277.64
2019-05-14T08:44:51.358Z,103278.63
2019-05-14T08:47:18.409Z,103276.45
2019-05-14T08:49:47.611Z,103284.73
2019-05-14T08:52:16.061Z,103285.33
2019-05-14T08:54:42.058Z,103286.98
2019-05-14T08:57:09.973Z,103286.38
2019-05-14T08:59:39.537Z,103279.23
2019-05-14T09:02:06.723Z,103285.30
2019-05-14T09:04:33.885Z,103282.03
2019-05-14T09:07:00.709Z,103277.69
2019-05-14T09:09:29.082Z,103276.22
2019-05-14T09:11:56.373Z,103273.09
2019-05-14T09:14:23.009Z,103260.44
2019-05-14T09:16:51.328Z,103262.08
2019-05-14T09:19:19.254Z,103266.13
2019-05-14T09:21:46.267Z,103259.23
2019-05-14T09:24:13.028Z,103266.14
2019-05-14T09:26:39.883Z,103253.09
2019-05-14T09:29:19.421Z,103258.83
2019-05-14T09:31:35.097Z,103258.41
2019-05-14T09:34:01.771Z,103245.80
2019-05-14T09:36:29.106Z,103249.65
2019-05-14T09:38:58.216Z,103249.49
2019-05-14T09:41:27.595Z,103251.30
2019-05-14T09:43:54.707Z,103248.58
2019-05-14T09:46:21.508Z,103243.57
2019-05-14T09:48:48.925Z,103243.95
2019-05-14T09:51:15.616Z,103247.99
2019-05-14T09:53:42.249Z,103235.09
2019-05-14T09:56:09.341Z,103223.36
2019-05-14T09:58:38.780Z,103231.87
2019-05-14T10:01:08.965Z,103225.02
2019-05-14T10:03:35.921Z,103228.88
2019-05-14T10:06:05.669Z,103228.67
2019-05-14T10:08:32.262Z,103232.86
2019-05-14T10:11:00.210Z,103223.29
2019-05-14T10:13:28.237Z,103222.85
2019-05-14T10:15:55.260Z,103221.00
2019-05-14T10:18:22.383Z,103218.48
2019-05-14T10:20:49.624Z,103220.02
2019-05-14T10:23:18.686Z,103208.02
2019-05-14T10:25:45.056Z,103207.49
2019-05-14T10:28:11.787Z,103205.97
2019-05-14T10:30:38.519Z,103187.39
2019-05-14T10:33:10.902Z,103198.50
2019-05-14T10:35:34.484Z,103192.01
2019-05-14T10:38:01.244Z,103184.38
2019-05-14T10:40:29.222Z,103184.98
2019-05-14T10:42:56.006Z,103180.94
2019-05-14T10:45:22.727Z,103188.57
2019-05-14T10:47:51.646Z,103186.18
2019-05-14T10:50:19.946Z,103183.91
2019-05-14T10:52:48.888Z,103184.64
2019-05-14T10:55:15.311Z,103180.62
2019-05-14T10:57:45.102Z,103182.08
2019-05-14T11:00:12.313Z,103173.82
2019-05-14T11:02:39.024Z,103178.28
2019-05-14T11:05:06.939Z,103182.59
2019-05-14T11:07:33.917Z,103176.91
2019-05-14T11:10:00.537Z,103174.41
2019-05-14T11:12:29.679Z,103163.58
2019-05-14T11:14:56.232Z,103165.33
2019-05-14T11:17:23.641Z,103166.59
2019-05-14T11:19:50.249Z,103160.44
2019-05-14T11:22:19.023Z,103148.66
2019-05-14T11:24:45.684Z,103156.44
2019-05-14T11:27:12.669Z,103154.64
2019-05-14T11:29:39.310Z,103148.44
2019-05-14T11:32:05.992Z,103143.77
2019-05-14T11:34:32.597Z,103135.05
2019-05-14T11:37:00.190Z,103147.22
2019-05-14T11:39:29.957Z,103132.13
2019-05-14T11:41:59.327Z,103129.86
2019-05-14T11:44:28.809Z,103133.75
2019-05-14T11:46:58.121Z,103124.94
2019-05-14T11:49:24.193Z,103116.11
2019-05-14T11:52:04.078Z,103118.51
2019-05-14T11:54:23.122Z,103113.15
2019-05-14T11:56:49.937Z,103113.02
2019-05-14T11:59:18.778Z,103103.77
2019-05-14T12:01:45.029Z,103111.39
2019-05-14T12:04:12.048Z,103114.70
2019-05-14T12:06:39.210Z,103108.77
2019-05-14T12:09:06.185Z,103092.93
2019-05-14T12:11:32.896Z,103097.80
2019-05-14T12:14:00.056Z,103094.19
2019-05-14T12:16:29.127Z,103085.03
2019-05-14T12:18:55.154Z,103085.48
2019-05-14T12:21:22.079Z,103090.98
2019-05-14T12:23:48.725Z,103087.71
2019-05-14T12:26:15.556Z,103082.00
2019-05-14T12:28:42.227Z,103081.38
2019-05-14T12:31:09.456Z,103077.89
2019-05-14T12:33:39.287Z,103075.47
2019-05-14T12:36:05.138Z,103070.77
2019-05-14T12:38:31.788Z,103069.33
2019-05-14T12:41:01.755Z,103067.82
2019-05-14T12:43:28.629Z,103075.50
2019-05-14T12:45:55.262Z,103069.11
2019-05-14T12:48:21.851Z,103068.91
2019-05-14T12:50:49.016Z,103057.45
2019-05-14T12:53:15.799Z,103057.31
2019-05-14T12:55:42.490Z,103051.08
2019-05-14T12:58:09.104Z,103053.05
2019-05-14T13:00:35.899Z,103048.13
2019-05-14T13:03:02.717Z,103057.50
2019-05-14T13:05:29.611Z,103040.16
2019-05-14T13:07:58.006Z,103049.80
2019-05-14T13:10:24.785Z,103042.84
2019-05-14T13:12:51.542Z,103043.63
2019-05-14T13:15:20.206Z,103044.24
2019-05-14T13:17:48.433Z,103047.27
2019-05-14T13:20:15.629Z,103039.68
2019-05-14T13:22:46.354Z,103031.53
2019-05-14T13:25:13.085Z,103037.58
2019-05-14T13:27:39.736Z,103038.20
2019-05-14T13:30:09.089Z,103029.19
2019-05-14T13:32:35.452Z,103024.93
2019-05-14T13:35:02.550Z,103020.48
2019-05-14T13:37:29.173Z,103016.39
2019-05-14T13:39:55.763Z,103020.61
2019-05-14T13:42:23.141Z,103013.13
2019-05-14T13:44:50.938Z,103022.80
2019-05-14T13:47:18.262Z,103017.55
2019-05-14T13:49:45.294Z,103003.19
2019-05-14T13:52:12.136Z,103007.02
2019-05-14T13:54:39.491Z,102994.21
2019-05-14T13:57:10.029Z,102990.82
2019-05-14T13:59:43.913Z,102988.25
2019-05-14T14:02:04.904Z,102989.27
2019-05-14T14:04:31.713Z,102987.11
2019-05-14T14:06:59.436Z,102988.73
2019-05-14T14:09:28.404Z,102990.69
2019-05-14T14:11:54.635Z,102980.82
2019-05-14T14:14:21.671Z,102989.54
2019-05-14T14:16:49.037Z,102994.30
2019-05-14T14:19:15.817Z,102988.55
2019-05-14T14:21:43.254Z,102985.56
2019-05-14T14:24:11.477Z,102988.63
2019-05-14T14:26:39.606Z,102989.34
2019-05-14T14:29:09.008Z,102976.09
2019-05-14T14:31:35.039Z,102986.00
2019-05-14T14:34:01.802Z,102986.20
2019-05-14T14:36:29.838Z,102974.08
2019-05-14T14:38:58.870Z,102967.17
2019-05-14T14:41:28.252Z,102974.86
2019-05-14T14:43:55.363Z,102971.72
2019-05-14T14:46:22.207Z,102970.84
2019-05-14T14:48:49.665Z,102976.20
2019-05-14T14:51:18.948Z,102966.22
2019-05-14T14:53:54.848Z,102958.37
2019-05-14T14:56:14.728Z,102965.48
2019-05-14T14:58:41.456Z,102955.27
2019-05-14T15:01:08.790Z,102955.37
2019-05-14T15:03:38.239Z,102957.94
2019-05-14T15:06:09.707Z,102952.17
2019-05-14T15:08:38.861Z,102957.11
2019-05-14T15:11:04.906Z,102950.80
2019-05-14T15:13:31.668Z,102945.17
2019-05-14T15:16:01.070Z,102950.86
2019-05-14T15:18:28.851Z,102945.00
2019-05-14T15:20:58.671Z,102948.20
2019-05-14T15:23:24.531Z,102944.08
2019-05-14T15:25:52.255Z,102952.37
2019-05-14T15:28:19.568Z,102950.48
2019-05-14T15:30:49.667Z,102951.25
2019-05-14T15:33:15.546Z,102944.16
2019-05-14T15:35:42.199Z,102942.94
2019-05-14T15:38:11.359Z,102940.86
2019-05-14T15:40:40.018Z,102941.98
2019-05-14T15:43:06.417Z,102937.91
2019-05-14T15:45:34.229Z,102943.02
2019-05-14T15:48:03.948Z,102937.55
2019-05-14T15:50:32.835Z,102936.33
2019-05-14T15:52:58.719Z,102941.66
2019-05-14T15:55:25.316Z,102938.72
2019-05-14T15:57:52.024Z,102936.41
2019-05-14T16:00:19.915Z,102933.48
2019-05-14T16:02:46.505Z,102932.56
2019-05-14T16:05:13.436Z,102934.27
2019-05-14T16:07:40.569Z,102932.48
2019-05-14T16:10:08.650Z,102925.09
2019-05-14T16:12:39.463Z,102924.92
2019-05-14T16:15:08.670Z,102915.16
2019-05-14T16:17:35.238Z,102914.03
2019-05-14T16:20:01.899Z,102919.61
2019-05-14T16:22:29.289Z,102910.94
2019-05-14T16:25:00.100Z,102910.35
2019-05-14T16:27:25.049Z,102903.91
2019-05-14T16:29:51.962Z,102912.11
2019-05-14T16:32:18.601Z,102908.02
2019-05-14T16:34:45.341Z,102904.87
2019-05-14T16:37:12.426Z,102909.19
2019-05-14T16:39:39.266Z,102914.44
2019-05-14T16:42:05.946Z,102913.33
2019-05-14T16:44:32.866Z,102916.23
2019-05-14T16:46:59.465Z,102915.90
2019-05-14T16:49:29.403Z,102917.09
2019-05-14T16:51:55.100Z,102911.88
2019-05-14T16:54:23.628Z,102919.23
2019-05-14T16:56:50.468Z,102909.32
2019-05-14T16:59:18.586Z,102917.31
2019-05-14T17:01:49.146Z,102912.98
2019-05-14T17:04:15.637Z,102914.65
2019-05-14T17:06:42.396Z,102908.58
2019-05-14T17:09:09.370Z,102913.56
2019-05-14T17:11:35.937Z,102915.05
2019-05-14T17:14:02.889Z,102903.98
2019-05-14T17:16:29.650Z,102909.98
2019-05-14T17:18:58.954Z,102910.83
2019-05-14T17:21:25.234Z,102901.52
2019-05-14T17:23:52.114Z,102910.48
2019-05-14T17:26:18.748Z,102903.06
2019-05-14T17:28:45.442Z,102903.12
2019-05-14T17:31:12.039Z,102900.52
2019-05-14T17:33:39.471Z,102904.02
2019-05-14T17:36:09.234Z,102899.02
2019-05-14T17:38:35.332Z,102903.12
2019-05-14T17:41:01.949Z,102901.17
2019-05-14T17:43:28.877Z,102898.71
2019-05-14T17:45:55.576Z,102899.48
2019-05-14T17:48:22.463Z,102905.64
2019-05-14T17:50:49.347Z,102894.89
2019-05-14T17:53:18.215Z,102898.90
2019-05-14T17:55:50.064Z,102896.41
2019-05-14T17:58:13.619Z,102891.59
2019-05-14T18:00:40.403Z,102892.44
2019-05-14T18:03:08.740Z,102887.10
2019-05-14T18:05:35.497Z,102892.78
2019-05-14T18:08:02.346Z,102896.91
2019-05-14T18:10:28.997Z,102892.52
2019-05-14T18:12:55.693Z,102887.25
2019-05-14T18:15:22.803Z,102899.17
2019-05-14T18:17:49.666Z,102891.34
2019-05-14T18:20:16.570Z,102892.41
2019-05-14T18:22:43.800Z,102891.84
2019-05-14T18:25:10.563Z,102883.36
2019-05-14T18:27:39.226Z,102885.88
2019-05-14T18:30:09.264Z,102883.02
2019-05-14T18:32:35.193Z,102889.23
2019-05-14T18:35:01.839Z,102880.62
2019-05-14T18:37:29.065Z,102877.02
2019-05-14T18:39:55.934Z,102878.08
2019-05-14T18:42:22.539Z,102884.15
2019-05-14T18:44:49.823Z,102883.23
2019-05-14T18:47:19.391Z,102885.58
2019-05-14T18:49:45.205Z,102881.83
2019-05-14T18:52:11.926Z,102881.84
2019-05-14T18:54:38.835Z,102876.44
2019-05-14T18:57:05.640Z,102875.80
2019-05-14T18:59:32.299Z,102877.59
2019-05-14T19:01:59.534Z,102880.50
2019-05-14T19:04:27.972Z,102878.08
2019-05-14T19:06:54.741Z,102877.80
2019-05-14T19:09:21.370Z,102881.20
2019-05-14T19:11:48.361Z,102890.73
2019-05-14T19:14:15.205Z,102887.87
2019-05-14T19:16:41.813Z,102888.69
2019-05-14T19:19:08.428Z,102886.12
2019-05-14T19:21:35.090Z,102883.42
2019-05-14T19:24:01.781Z,102890.02
2019-05-14T19:26:36.569Z,102885.44
2019-05-14T19:28:58.270Z,102889.41
2019-05-14T19:31:24.918Z,102889.53
2019-05-14T19:33:53.753Z,102891.45
2019-05-14T19:36:20.478Z,102893.86
2019-05-14T19:38:48.126Z,102885.28
2019-05-14T19:41:14.910Z,102885.22
2019-05-14T19:43:41.716Z,102894.34
2019-05-14T19:46:16.387Z,102887.14
2019-05-14T19:48:43.986Z,102889.36
2019-05-14T19:51:10.651Z,102884.64
2019-05-14T19:53:39.183Z,102883.75
2019-05-14T19:56:06.238Z,102887.04
2019-05-14T19:58:32.863Z,102887.41
2019-05-14T20:01:00.040Z,102888.77
2019-05-14T20:03:29.066Z,102890.20
2019-05-14T20:05:55.672Z,102886.21
2019-05-14T20:08:22.998Z,102886.21
2019-05-14T20:10:49.821Z,102887.33
2019-05-14T20:13:19.099Z,102881.50
2019-05-14T20:15:45.176Z,102882.97
2019-05-14T20:18:11.826Z,102879.16
2019-05-14T20:20:38.461Z,102879.45
2019-05-14T20:23:06.192Z,102876.44
2019-05-14T20:25:33.316Z,102875.73
2019-05-14T20:28:00.803Z,102875.73
2019-05-14T20:30:29.498Z,102872.62
2019-05-14T20:32:59.067Z,102872.62
2019-05-14T20:35:31.545Z,102869.84
2019-05-14T20:37:54.846Z,102871.61
2019-05-14T20:40:23.441Z,102868.37
2019-05-14T20:42:50.068Z,102874.78
2019-05-14T20:45:19.102Z,102880.00
2019-05-14T20:47:48.001Z,102875.69
2019-05-14T20:50:14.508Z,102870.86
2019-05-14T20:52:41.207Z,102877.21
2019-05-14T20:55:09.553Z,102878.55
2019-05-14T20:57:38.239Z,102863.06
2019-05-14T21:00:05.610Z,102863.06
2019-05-14T21:02:32.690Z,102862.78
2019-05-14T21:05:04.521Z,102864.08
2019-05-14T21:07:29.006Z,102865.18
2019-05-14T21:09:56.801Z,102865.18
2019-05-14T21:12:24.013Z,102873.06
2019-05-14T21:14:50.719Z,102873.02
2019-05-14T21:17:19.074Z,102870.55
2019-05-14T21:19:45.856Z,102869.34
2019-05-14T21:22:13.012Z,102868.16
2019-05-14T21:24:39.758Z,102869.63
2019-05-14T21:27:09.315Z,102862.95
2019-05-14T21:29:38.291Z,102864.59
2019-05-14T21:32:04.579Z,102858.55
2019-05-14T21:34:34.087Z,102861.19
2019-05-14T21:37:01.021Z,102857.92
2019-05-14T21:39:28.037Z,102862.83
2019-05-14T21:41:54.723Z,102862.83
2019-05-14T21:44:21.345Z,102856.92
2019-05-14T21:46:48.325Z,102860.33
2019-05-14T21:49:15.334Z,102852.30
2019-05-14T21:51:42.082Z,102852.16
2019-05-14T21:54:09.460Z,102854.64
2019-05-14T21:56:38.677Z,102852.23
2019-05-14T21:59:05.557Z,102848.47
2019-05-14T22:01:32.615Z,102842.48
2019-05-14T22:03:59.583Z,102842.84
2019-05-14T22:06:29.055Z,102841.69
2019-05-14T22:08:55.826Z,102844.47
2019-05-14T22:11:22.828Z,102843.89
2019-05-14T22:13:49.994Z,102840.67
2019-05-14T22:16:18.878Z,102844.47
2019-05-14T22:18:45.133Z,102845.28
2019-05-14T22:21:11.818Z,102847.65
2019-05-14T22:23:38.959Z,102841.19
2019-05-14T22:26:07.260Z,102847.75
2019-05-14T22:28:34.060Z,102843.52
2019-05-14T22:31:00.677Z,102843.54
2019-05-14T22:33:28.459Z,102844.78
2019-05-14T22:35:55.259Z,102839.58
2019-05-14T22:38:21.932Z,102839.58
2019-05-14T22:40:49.064Z,102844.05
2019-05-14T22:43:18.291Z,102839.75
2019-05-14T22:45:45.092Z,102837.77
2019-05-14T22:48:12.102Z,102836.09
2019-05-14T22:50:41.462Z,102832.32
2019-05-14T22:53:09.237Z,102828.47
2019-05-14T22:55:38.107Z,102833.08
2019-05-14T22:58:04.483Z,102833.63
2019-05-14T23:00:32.358Z,102839.53
2019-05-14T23:02:59.153Z,102838.11
2019-05-14T23:05:26.047Z,102831.77
2019-05-14T23:07:52.935Z,102836.55
2019-05-14T23:10:19.780Z,102839.34
2019-05-14T23:12:48.722Z,102835.23
2019-05-14T23:15:15.126Z,102831.75
2019-05-14T23:17:41.723Z,102839.00
2019-05-14T23:20:09.272Z,102833.67
2019-05-14T23:22:38.862Z,102828.89
2019-05-14T23:25:05.068Z,102834.60
2019-05-14T23:27:31.765Z,102829.52
2019-05-14T23:29:58.766Z,102824.44
2019-05-14T23:32:25.438Z,102825.30
2019-05-14T23:34:52.062Z,102822.56
2019-05-14T23:37:18.912Z,102817.85
2019-05-14T23:39:45.753Z,102820.74
2019-05-14T23:42:12.407Z,102820.11
2019-05-14T23:44:39.062Z,102820.49
2019-05-14T23:47:05.673Z,102819.55
2019-05-14T23:49:33.323Z,102820.81
2019-05-14T23:52:00.235Z,102815.25
2019-05-14T23:54:29.218Z,102813.56
2019-05-14T23:56:58.279Z,102804.94
2019-05-14T23:59:24.480Z,102806.55
